Time;durP1;ratioP1;P1;durP2;ratioP2;P2;SDS_P1;SDS_P2;PMS_P1;PMS_P2;Temp;Humidity;BMP_temperature;BMP_pressure;BME280_temperature;BME280_humidity;BME280_pressure;Samples;Min_cycle;Max_cycle;Signal;HPM_P1;HPM_P2
2023/06/15 00:01:11;;;;;;;;;;;;;;;27.70;40.55;101931.91;5067165;28;19916;-72
2023/06/15 00:03:37;;;;;;;;;;;;;;;27.69;40.58;101928.34;5062459;28;19984;-72
2023/06/15 00:06:02;;;;;;;;;;;;;;;27.67;40.72;101936.75;5073592;28;19936;-73
2023/06/15 00:08:27;;;;;;;;;;;;;;;27.67;40.59;101939.50;5058725;28;19913;-73
2023/06/15 00:10:52;;;;;;;;;;;;;;;27.67;40.53;101933.19;5071950;28;20023;-73
2023/06/15 00:13:17;;;;;;;;;;;;;;;27.65;40.38;101933.41;5066336;28;19917;-73
2023/06/15 00:15:43;;;;;;;;;;;;;;;27.64;40.55;101934.41;5054578;28;19921;-73
2023/06/15 00:18:08;;;;;;;;;;;;;;;27.64;40.55;101931.69;5073987;28;19920;-72
2023/06/15 00:20:34;;;;;;;;;;;;;;;27.64;40.64;101934.41;5058693;28;19920;-72
2023/06/15 00:22:59;;;;;;;;;;;;;;;27.63;40.35;101931.91;5051306;28;19917;-72
2023/06/15 00:25:24;;;;;;;;;;;;;;;27.61;40.25;101929.38;5065674;28;19916;-72
2023/06/15 00:27:50;;;;;;;;;;;;;;;27.61;40.57;101928.50;5068057;28;19980;-72
2023/06/15 00:30:15;;;;;;;;;;;;;;;27.61;40.56;101933.97;5059599;28;19913;-73
2023/06/15 00:32:41;;;;;;;;;;;;;;;27.59;40.55;101926.00;5052202;28;19934;-73
2023/06/15 00:35:06;;;;;;;;;;;;;;;27.59;40.36;101928.72;5061902;28;19912;-73
2023/06/15 00:37:31;;;;;;;;;;;;;;;27.58;40.43;101931.66;5062694;28;19913;-73
2023/06/15 00:39:57;;;;;;;;;;;;;;;27.57;40.56;101938.16;5070090;28;20032;-72
2023/06/15 00:42:22;;;;;;;;;;;;;;;27.57;40.32;101935.44;5054024;28;19913;-74
2023/06/15 00:44:47;;;;;;;;;;;;;;;27.56;40.47;101937.31;5070821;28;19963;-72
2023/06/15 00:47:12;;;;;;;;;;;;;;;27.55;40.12;101935.63;5061951;28;20262;-73
2023/06/15 00:49:37;;;;;;;;;;;;;;;27.55;40.38;101929.34;5046498;28;20506;-72
2023/06/15 00:52:03;;;;;;;;;;;;;;;27.53;40.13;101931.44;5053568;28;19935;-73
2023/06/15 00:54:28;;;;;;;;;;;;;;;27.52;40.37;101929.72;5048279;28;19999;-73
2023/06/15 00:56:53;;;;;;;;;;;;;;;27.53;40.27;101936.91;5043131;28;19920;-71
2023/06/15 00:59:19;;;;;;;;;;;;;;;27.52;40.20;101940.66;5065487;28;19928;-72
2023/06/15 01:01:54;;;;;;;;;;;;;;;27.50;40.35;101938.13;5064319;28;20394;-73
2023/06/15 01:04:20;;;;;;;;;;;;;;;27.49;40.26;101941.91;5055322;28;20184;-73
2023/06/15 01:06:52;;;;;;;;;;;;;;;27.48;40.42;101937.47;5072059;28;20377;-73
2023/06/15 01:09:18;;;;;;;;;;;;;;;27.48;40.07;101936.63;5058457;28;19917;-73
2023/06/15 01:11:43;;;;;;;;;;;;;;;27.47;40.13;101935.81;5039065;28;19917;-72
2023/06/15 01:14:09;;;;;;;;;;;;;;;27.46;40.12;101931.38;5062261;28;20022;-73
2023/06/15 01:16:39;;;;;;;;;;;;;;;27.45;40.16;101935.19;5042116;28;19939;-73
2023/06/15 01:19:09;;;;;;;;;;;;;;;27.44;40.09;101936.19;5050738;28;20301;-73
2023/06/15 01:21:34;;;;;;;;;;;;;;;27.44;40.09;101941.66;5071489;28;19924;-72
2023/06/15 01:24:09;;;;;;;;;;;;;;;27.44;40.19;101938.09;5059292;28;19943;-73
2023/06/15 01:26:37;;;;;;;;;;;;;;;27.43;40.15;101942.72;5061185;28;19928;-73
2023/06/15 01:29:03;;;;;;;;;;;;;;;27.43;40.02;101939.97;5063874;28;19936;-73
2023/06/15 01:31:28;;;;;;;;;;;;;;;27.41;40.04;101933.88;5031900;28;19944;-73
2023/06/15 01:33:55;;;;;;;;;;;;;;;27.42;40.24;101941.03;5070804;28;19935;-72
2023/06/15 01:36:20;;;;;;;;;;;;;;;27.41;39.95;101933.88;5047568;28;19935;-73
2023/06/15 01:38:46;;;;;;;;;;;;;;;27.41;40.03;101931.16;5069304;28;19943;-73
2023/06/15 01:41:11;;;;;;;;;;;;;;;27.39;40.11;101936.81;5048238;28;19925;-73
2023/06/15 01:43:37;;;;;;;;;;;;;;;27.39;39.99;101930.50;5040627;28;19924;-73
2023/06/15 01:46:02;;;;;;;;;;;;;;;27.39;39.98;101934.06;5053099;28;19952;-73
2023/06/15 01:48:27;;;;;;;;;;;;;;;27.39;39.97;101935.97;5056372;28;19975;-73
2023/06/15 01:50:53;;;;;;;;;;;;;;;27.37;40.05;101927.97;5059254;28;19931;-73
2023/06/15 01:53:18;;;;;;;;;;;;;;;27.37;39.93;101927.13;5062734;28;20350;-72
2023/06/15 01:55:43;;;;;;;;;;;;;;;27.37;39.83;101927.97;5066308;28;19941;-73
2023/06/15 01:58:10;;;;;;;;;;;;;;;27.36;39.83;101933.66;5059746;28;19917;-72
2023/06/15 02:00:36;;;;;;;;;;;;;;;27.36;40.06;101933.66;5071626;28;19917;-72
2023/06/15 02:03:01;;;;;;;;;;;;;;;27.34;39.92;101933.84;5059915;28;20043;-72
2023/06/15 02:05:26;;;;;;;;;;;;;;;27.34;40.18;101933.84;5044613;28;19919;-73
2023/06/15 02:07:51;;;;;;;;;;;;;;;27.34;39.90;101939.28;5055894;28;19924;-73
2023/06/15 02:10:18;;;;;;;;;;;;;;;27.34;39.88;101928.38;5060965;28;20004;-73
2023/06/15 02:12:43;;;;;;;;;;;;;;;27.33;39.79;101934.88;5053218;28;20328;-73
2023/06/15 02:15:09;;;;;;;;;;;;;;;27.33;39.87;101926.69;5059948;28;19921;-72
2023/06/15 02:17:38;;;;;;;;;;;;;;;27.33;39.93;101934.03;5049665;28;20481;-72
2023/06/15 02:20:05;;;;;;;;;;;;;;;27.32;39.88;101932.38;5066972;28;19925;-72
2023/06/15 02:22:30;;;;;;;;;;;;;;;27.31;39.76;101936.13;5066269;28;19914;-74
2023/06/15 02:24:55;;;;;;;;;;;;;;;27.30;39.77;101932.53;5056924;28;19936;-73
2023/06/15 02:27:20;;;;;;;;;;;;;;;27.29;39.56;101930.88;5053297;28;19924;-72
2023/06/15 02:29:45;;;;;;;;;;;;;;;27.30;39.72;101928.97;5063584;28;19913;-72
2023/06/15 02:32:11;;;;;;;;;;;;;;;27.28;39.74;101926.44;5056008;28;19971;-74
2023/06/15 02:34:36;;;;;;;;;;;;;;;27.27;39.77;101941.16;5046916;28;19912;-73
2023/06/15 02:37:02;;;;;;;;;;;;;;;27.27;39.71;101929.38;5055710;28;19923;-72
2023/06/15 02:39:28;;;;;;;;;;;;;;;27.26;39.69;101924.94;5069926;28;20378;-72
2023/06/15 02:41:53;;;;;;;;;;;;;;;27.25;39.67;101928.72;5044913;28;19921;-72
2023/06/15 02:44:20;;;;;;;;;;;;;;;27.23;39.65;101934.41;5060638;28;19920;-73
2023/06/15 02:46:45;;;;;;;;;;;;;;;27.21;39.55;101930.19;5051645;28;19920;-73
2023/06/15 02:49:10;;;;;;;;;;;;;;;27.20;39.65;101932.06;5048703;28;19917;-73
2023/06/15 02:51:37;;;;;;;;;;;;;;;27.17;39.79;101938.75;5063679;28;19940;-73
2023/06/15 02:54:02;;;;;;;;;;;;;;;27.16;39.64;101931.63;5048341;28;19920;-72
2023/06/15 02:56:29;;;;;;;;;;;;;;;27.15;39.84;101935.41;5069696;28;20383;-72
2023/06/15 02:58:54;;;;;;;;;;;;;;;27.15;39.62;101932.66;5057472;28;20006;-73
2023/06/15 03:01:23;;;;;;;;;;;;;;;27.14;39.46;101933.72;5077480;28;19929;-72
2023/06/15 03:03:48;;;;;;;;;;;;;;;27.13;39.57;101934.72;5060731;28;19913;-72
2023/06/15 03:06:14;;;;;;;;;;;;;;;27.12;39.52;101929.47;5056962;28;20657;-73
2023/06/15 03:08:40;;;;;;;;;;;;;;;27.11;39.80;101928.66;5067276;28;19928;-72
2023/06/15 03:11:06;;;;;;;;;;;;;;;27.12;39.56;101932.22;5063351;28;19917;-73
2023/06/15 03:13:31;;;;;;;;;;;;;;;27.11;39.51;101934.09;5051305;28;19976;-73
2023/06/15 03:15:59;;;;;;;;;;;;;;;27.10;39.53;101931.56;5065481;28;19924;-74
2023/06/15 03:18:24;;;;;;;;;;;;;;;27.08;39.60;101929.00;5065171;28;20140;-72
2023/06/15 03:20:52;;;;;;;;;;;;;;;27.08;39.50;101936.34;5047214;28;19921;-72
2023/06/15 03:23:18;;;;;;;;;;;;;;;27.08;39.41;101937.19;5072273;28;19920;-72
2023/06/15 03:25:44;;;;;;;;;;;;;;;27.08;39.47;101944.53;5058295;28;19916;-73
2023/06/15 03:28:09;;;;;;;;;;;;;;;27.07;39.46;101935.50;5074317;28;19920;-73
2023/06/15 03:30:35;;;;;;;;;;;;;;;27.06;39.36;101939.28;5063430;28;19939;-73
2023/06/15 03:33:01;;;;;;;;;;;;;;;27.05;39.63;101945.78;5061261;28;19912;-72
2023/06/15 03:35:26;;;;;;;;;;;;;;;27.05;39.34;101939.47;5071035;28;19916;-72
2023/06/15 03:37:52;;;;;;;;;;;;;;;27.05;39.48;101944.94;5058119;28;19913;-72
2023/06/15 03:40:17;;;;;;;;;;;;;;;27.04;39.38;101938.63;5068336;28;19923;-73
2023/06/15 03:42:42;;;;;;;;;;;;;;;27.04;39.27;101940.53;5064199;28;19940;-72
2023/06/15 03:45:07;;;;;;;;;;;;;;;27.03;39.41;101942.41;5066519;28;19913;-73
2023/06/15 03:47:32;;;;;;;;;;;;;;;27.02;39.55;101935.28;5065753;28;19971;-73
2023/06/15 03:49:58;;;;;;;;;;;;;;;27.01;39.48;101933.56;5051230;28;19948;-73
2023/06/15 03:52:24;;;;;;;;;;;;;;;27.02;39.31;101934.44;5049616;28;19913;-73
2023/06/15 03:54:50;;;;;;;;;;;;;;;27.01;39.40;101938.19;5068339;28;19917;-73
2023/06/15 03:57:15;;;;;;;;;;;;;;;27.00;39.51;101942.78;5067455;28;19935;-73
2023/06/15 03:59:40;;;;;;;;;;;;;;;27.01;39.24;101932.72;5053260;28;19927;-73
2023/06/15 04:02:06;;;;;;;;;;;;;;;27.00;39.43;101937.34;5076258;28;19924;-72
2023/06/15 04:04:32;;;;;;;;;;;;;;;26.99;39.34;101932.09;5058596;28;19939;-73
2023/06/15 04:06:57;;;;;;;;;;;;;;;26.98;39.43;101942.16;5066537;28;19916;-73
2023/06/15 04:09:22;;;;;;;;;;;;;;;26.98;39.38;101938.59;5053366;28;20393;-73
2023/06/15 04:11:47;;;;;;;;;;;;;;;26.98;39.38;101944.91;5063547;28;19960;-73
2023/06/15 04:14:14;;;;;;;;;;;;;;;26.97;39.33;101945.06;5049719;28;19921;-73
2023/06/15 04:16:39;;;;;;;;;;;;;;;26.96;39.51;101944.22;5066592;28;19919;-73
2023/06/15 04:19:04;;;;;;;;;;;;;;;26.96;39.21;101944.22;5045040;28;19917;-73
2023/06/15 04:21:29;;;;;;;;;;;;;;;26.96;39.45;101946.13;5063729;28;20325;-72
2023/06/15 04:23:55;;;;;;;;;;;;;;;26.95;39.23;101939.81;5071252;28;20275;-73
2023/06/15 04:26:20;;;;;;;;;;;;;;;26.95;39.21;101948.00;5054431;28;20518;-73
2023/06/15 04:28:45;;;;;;;;;;;;;;;26.94;39.30;101943.59;5059564;28;19920;-72
2023/06/15 04:31:12;;;;;;;;;;;;;;;26.94;39.22;101946.31;5063407;28;20066;-72
2023/06/15 04:33:42;;;;;;;;;;;;;;;26.93;39.25;101952.81;5041738;28;20350;-73
2023/06/15 04:36:07;;;;;;;;;;;;;;;26.92;39.34;101951.97;5056274;28;19916;-73
2023/06/15 04:38:32;;;;;;;;;;;;;;;26.91;39.40;101955.75;5063491;28;19916;-73
2023/06/15 04:40:57;;;;;;;;;;;;;;;26.91;39.17;101955.75;5064754;28;19943;-73
2023/06/15 04:43:23;;;;;;;;;;;;;;;26.91;39.12;101954.91;5064095;28;19913;-73
2023/06/15 04:45:48;;;;;;;;;;;;;;;26.90;39.46;101953.22;5065740;28;19913;-73
2023/06/15 04:48:13;;;;;;;;;;;;;;;26.90;39.30;101954.06;5058920;28;19912;-73
2023/06/15 04:50:38;;;;;;;;;;;;;;;26.89;39.29;101959.72;5068629;28;19948;-73
2023/06/15 04:53:04;;;;;;;;;;;;;;;26.88;39.27;101961.59;5058911;28;19921;-72
2023/06/15 04:55:29;;;;;;;;;;;;;;;26.87;39.43;101957.19;5067905;28;19908;-72
2023/06/15 04:57:55;;;;;;;;;;;;;;;26.87;39.39;101961.78;5066776;28;19977;-72
2023/06/15 05:00:20;;;;;;;;;;;;;;;26.86;39.37;101966.41;5056149;28;19917;-72
2023/06/15 05:02:45;;;;;;;;;;;;;;;26.85;39.38;101970.19;5072018;28;19912;-72
2023/06/15 05:05:11;;;;;;;;;;;;;;;26.85;39.15;101967.47;5057942;28;19913;-73
2023/06/15 05:07:36;;;;;;;;;;;;;;;26.85;39.33;101974.81;5060621;28;19921;-73
2023/06/15 05:10:03;;;;;;;;;;;;;;;26.84;39.31;101976.66;5065294;28;19935;-73
2023/06/15 05:12:28;;;;;;;;;;;;;;;26.83;39.21;101969.53;5066007;28;20262;-73
2023/06/15 05:14:53;;;;;;;;;;;;;;;26.37;39.35;101898.97;5060636;28;19927;-72
2023/06/15 05:17:19;;;;;;;;;;;;;;;26.82;39.41;101970.56;5053903;28;19944;-73
2023/06/15 05:19:44;;;;;;;;;;;;;;;26.83;39.28;101976.88;5061060;28;20000;-72
2023/06/15 05:22:10;;;;;;;;;;;;;;;26.81;39.29;101979.81;5060289;28;20374;-73
2023/06/15 05:24:35;;;;;;;;;;;;;;;26.80;39.29;101972.63;5069404;28;19913;-72
2023/06/15 05:27:02;;;;;;;;;;;;;;;26.81;39.40;101976.22;5053602;28;20291;-73
2023/06/15 05:29:27;;;;;;;;;;;;;;;26.80;39.48;101974.53;5055550;28;19986;-72
2023/06/15 05:31:55;;;;;;;;;;;;;;;26.79;39.31;101984.59;5061317;28;20404;-73
2023/06/15 05:34:20;;;;;;;;;;;;;;;26.79;39.48;101981.03;5060762;28;20025;-74
2023/06/15 05:36:45;;;;;;;;;;;;;;;26.78;39.43;101984.81;5068162;28;20321;-72
2023/06/15 05:39:11;;;;;;;;;;;;;;;26.77;39.36;101986.69;5064881;28;19944;-73
2023/06/15 05:41:37;;;;;;;;;;;;;;;26.77;39.29;101988.56;5059849;28;20540;-71
2023/06/15 05:44:02;;;;;;;;;;;;;;;26.76;39.36;101987.75;5065359;28;19913;-73
2023/06/15 05:46:27;;;;;;;;;;;;;;;26.75;39.41;101990.63;5064583;28;20401;-72
2023/06/15 05:48:52;;;;;;;;;;;;;;;26.74;39.39;101992.53;5057414;28;19940;-73
2023/06/15 05:51:17;;;;;;;;;;;;;;;26.73;39.57;101990.84;5074088;28;20349;-72
2023/06/15 05:53:43;;;;;;;;;;;;;;;26.73;39.36;101993.56;5057496;28;19917;-72
2023/06/15 05:56:08;;;;;;;;;;;;;;;26.73;39.71;101995.47;5048704;28;19920;-73
2023/06/15 05:58:33;;;;;;;;;;;;;;;26.72;39.68;101993.75;5065406;28;19953;-72
2023/06/15 06:00:58;;;;;;;;;;;;;;;26.71;39.62;101987.44;5057364;28;20619;-73
2023/06/15 06:03:23;;;;;;;;;;;;;;;26.70;39.58;101999.41;5069126;28;19919;-73
2023/06/15 06:05:48;;;;;;;;;;;;;;;26.71;39.69;102001.09;5060791;28;19972;-73
2023/06/15 06:08:14;;;;;;;;;;;;;;;26.70;39.71;102001.31;5062218;28;19921;-73
2023/06/15 06:10:39;;;;;;;;;;;;;;;26.70;39.67;101990.38;5064705;28;19924;-72
2023/06/15 06:13:05;;;;;;;;;;;;;;;26.69;39.46;101985.97;5068038;28;19921;-72
2023/06/15 06:15:30;;;;;;;;;;;;;;;26.69;39.57;102000.47;5057105;28;20043;-72
2023/06/15 06:17:55;;;;;;;;;;;;;;;26.67;39.69;101988.88;5070254;28;19917;-72
2023/06/15 06:20:20;;;;;;;;;;;;;;;26.67;39.72;101995.19;5060381;28;19957;-72
2023/06/15 06:22:45;;;;;;;;;;;;;;;26.66;39.66;101990.78;5064610;28;19912;-72
2023/06/15 06:25:13;;;;;;;;;;;;;;;26.66;39.63;101996.22;5072476;28;19912;-72
2023/06/15 06:27:38;;;;;;;;;;;;;;;26.66;39.84;101993.50;5060351;28;19923;-72
2023/06/15 06:30:04;;;;;;;;;;;;;;;26.65;39.74;101991.81;5071676;28;19921;-72
2023/06/15 06:32:29;;;;;;;;;;;;;;;26.66;39.65;101992.66;5066101;28;19924;-73
2023/06/15 06:34:55;;;;;;;;;;;;;;;26.66;39.65;101996.22;5052392;28;19914;-72
2023/06/15 06:37:20;;;;;;;;;;;;;;;26.67;39.76;101994.34;5066369;28;19925;-72
2023/06/15 06:39:45;;;;;;;;;;;;;;;26.67;39.75;101997.91;5067876;28;19963;-72
2023/06/15 06:42:11;;;;;;;;;;;;;;;26.68;39.67;102004.22;5060045;28;19919;-72
2023/06/15 06:44:36;;;;;;;;;;;;;;;26.67;39.70;102002.53;5072052;28;19963;-72
2023/06/15 06:47:02;;;;;;;;;;;;;;;26.66;39.51;101996.22;5067327;28;19917;-72
2023/06/15 06:49:27;;;;;;;;;;;;;;;26.68;39.74;102004.22;5055391;28;19920;-72
2023/06/15 06:51:52;;;;;;;;;;;;;;;26.67;39.68;102003.38;5058570;28;19913;-72
2023/06/15 06:54:17;;;;;;;;;;;;;;;26.66;39.72;101998.94;5057920;28;20408;-71
2023/06/15 06:56:42;;;;;;;;;;;;;;;26.66;39.69;102000.84;5050539;28;19943;-72
2023/06/15 06:59:08;;;;;;;;;;;;;;;26.66;39.53;102000.84;5048025;28;19920;-71
2023/06/15 07:01:33;;;;;;;;;;;;;;;26.66;39.78;102007.13;5063939;28;19928;-71
2023/06/15 07:03:58;;;;;;;;;;;;;;;26.65;39.58;102008.19;5053853;28;19920;-72
2023/06/15 07:06:23;;;;;;;;;;;;;;;26.64;39.65;102006.50;5053726;28;19917;-72
2023/06/15 07:08:49;;;;;;;;;;;;;;;26.64;39.54;102002.94;5051182;28;19917;-71
2023/06/15 07:11:14;;;;;;;;;;;;;;;26.63;39.64;102007.53;5047274;28;19921;-72
2023/06/15 07:13:40;;;;;;;;;;;;;;;26.63;39.64;102007.53;5070010;28;19913;-72
2023/06/15 07:16:06;;;;;;;;;;;;;;;26.62;39.76;102016.75;5055345;28;19920;-72
2023/06/15 07:18:31;;;;;;;;;;;;;;;26.62;39.62;102019.47;5071589;28;19913;-72
2023/06/15 07:20:56;;;;;;;;;;;;;;;26.62;39.65;102024.94;5063552;28;19980;-71
2023/06/15 07:23:22;;;;;;;;;;;;;;;26.62;39.80;102015.91;5062304;28;20357;-72
2023/06/15 07:25:48;;;;;;;;;;;;;;;26.61;39.70;102020.50;5070258;28;19913;-72
2023/06/15 07:28:13;;;;;;;;;;;;;;;26.61;39.67;102025.13;5060397;28;19974;-72
2023/06/15 07:30:38;;;;;;;;;;;;;;;26.61;39.76;102019.69;5068027;28;20292;-72
2023/06/15 07:33:03;;;;;;;;;;;;;;;26.59;39.78;102019.88;5062357;28;19912;-72
2023/06/15 07:35:29;;;;;;;;;;;;;;;26.59;39.97;102017.16;5052474;28;19917;-72
2023/06/15 07:37:54;;;;;;;;;;;;;;;26.59;39.74;102013.56;5052873;28;19931;-72
2023/06/15 07:40:19;;;;;;;;;;;;;;;26.59;39.62;102008.97;5070363;28;20011;-71
2023/06/15 07:42:44;;;;;;;;;;;;;;;26.59;39.93;102016.28;5050888;28;19924;-72
2023/06/15 07:45:10;;;;;;;;;;;;;;;26.58;39.69;102006.41;5049943;28;19916;-72
2023/06/15 07:47:35;;;;;;;;;;;;;;;26.57;39.98;102013.75;5056622;28;19913;-72
2023/06/15 07:50:00;;;;;;;;;;;;;;;26.57;39.92;102010.19;5049709;28;19999;-72
2023/06/15 07:52:25;;;;;;;;;;;;;;;26.56;39.81;102017.53;5072171;28;20323;-71
2023/06/15 07:54:50;;;;;;;;;;;;;;;26.57;39.91;102010.19;5059074;28;20407;-73
2023/06/15 07:57:16;;;;;;;;;;;;;;;26.56;40.16;102013.97;5066837;28;19913;-72
2023/06/15 07:59:41;;;;;;;;;;;;;;;26.55;39.86;102010.41;5066628;28;19914;-72
2023/06/15 08:02:06;;;;;;;;;;;;;;;26.55;40.05;102013.13;5064796;28;19917;-72
2023/06/15 08:04:31;;;;;;;;;;;;;;;26.55;40.15;102009.53;5051554;28;19919;-72
2023/06/15 08:06:56;;;;;;;;;;;;;;;26.54;40.16;102005.94;5067636;28;20436;-72
2023/06/15 08:09:22;;;;;;;;;;;;;;;26.55;40.16;102006.78;5062558;28;19919;-72
2023/06/15 08:11:49;;;;;;;;;;;;;;;26.54;40.06;102005.13;5063424;28;19912;-72
2023/06/15 08:14:14;;;;;;;;;;;;;;;26.54;40.18;102005.13;5052268;28;20369;-72
2023/06/15 08:16:39;;;;;;;;;;;;;;;26.54;40.03;102007.84;5053817;28;19944;-71
2023/06/15 08:19:05;;;;;;;;;;;;;;;26.54;40.35;102016.03;5075666;28;19913;-72
2023/06/15 08:21:31;;;;;;;;;;;;;;;26.53;39.93;101996.09;5061051;28;19971;-71
2023/06/15 08:23:57;;;;;;;;;;;;;;;26.54;40.12;102005.13;5060645;28;19935;-72
2023/06/15 08:26:22;;;;;;;;;;;;;;;26.54;40.18;101996.94;5069663;28;19913;-72
2023/06/15 08:28:47;;;;;;;;;;;;;;;26.53;40.27;101995.25;5050411;28;19913;-72
2023/06/15 08:31:12;;;;;;;;;;;;;;;26.53;40.04;101996.09;5062418;28;19927;-72
2023/06/15 08:33:38;;;;;;;;;;;;;;;26.53;40.21;101995.25;5065379;28;19912;-72
2023/06/15 08:36:04;;;;;;;;;;;;;;;26.54;40.19;102002.38;5052995;28;20004;-73
2023/06/15 08:38:29;;;;;;;;;;;;;;;26.53;40.13;101993.34;5059217;28;19912;-72
2023/06/15 08:40:54;;;;;;;;;;;;;;;26.53;40.13;101993.34;5071690;28;19951;-72
2023/06/15 08:43:19;;;;;;;;;;;;;;;26.54;40.13;101994.19;5056250;28;20001;-72
2023/06/15 08:45:45;;;;;;;;;;;;;;;26.53;40.03;101993.34;5046946;28;19920;-72
2023/06/15 08:48:11;;;;;;;;;;;;;;;26.54;40.13;101996.94;5062848;28;19919;-73
2023/06/15 08:50:36;;;;;;;;;;;;;;;26.53;40.06;101996.09;5059543;28;19939;-72
2023/06/15 08:53:02;;;;;;;;;;;;;;;26.53;40.25;101993.34;5069241;28;19916;-71
2023/06/15 08:55:27;;;;;;;;;;;;;;;26.53;40.15;101996.09;5041771;28;19913;-72
2023/06/15 08:57:52;;;;;;;;;;;;;;;26.54;40.30;101988.75;5062159;28;19988;-72
2023/06/15 09:00:19;;;;;;;;;;;;;;;26.54;40.21;101994.19;5063266;28;19917;-72
2023/06/15 09:02:46;;;;;;;;;;;;;;;26.54;40.27;101994.19;5066673;28;19920;-72
2023/06/15 09:05:11;;;;;;;;;;;;;;;26.55;40.23;102001.34;5057601;28;20376;-73
2023/06/15 09:07:36;;;;;;;;;;;;;;;26.54;40.32;101992.31;5068777;28;19947;-72
2023/06/15 09:10:17;;;;;;;;;;;;;;;26.54;40.34;101996.94;5060973;28;20367;-73
2023/06/15 09:12:43;;;;;;;;;;;;;;;26.55;40.20;101995.88;5065009;28;19916;-73
2023/06/15 09:15:12;;;;;;;;;;;;;;;26.54;40.22;101991.47;5066307;28;19979;-72
2023/06/15 09:17:37;;;;;;;;;;;;;;;26.55;40.39;101993.16;5048909;28;21092;-71
2023/06/15 09:20:03;;;;;;;;;;;;;;;26.55;40.28;101984.97;5067940;28;19988;-73
2023/06/15 09:22:29;;;;;;;;;;;;;;;26.55;40.24;101987.69;5041369;28;19917;-73
2023/06/15 09:24:54;;;;;;;;;;;;;;;26.55;40.28;101991.31;5044174;28;19937;-73
2023/06/15 09:27:19;;;;;;;;;;;;;;;26.56;40.55;101990.25;5065427;28;19956;-71
2023/06/15 09:30:00;;;;;;;;;;;;;;;26.56;40.44;101984.81;5064458;28;19940;-71
2023/06/15 09:32:27;;;;;;;;;;;;;;;26.57;40.38;101980.19;5060246;28;19916;-72
2023/06/15 09:34:59;;;;;;;;;;;;;;;26.57;40.37;101978.31;5067370;28;19923;-72
2023/06/15 09:37:25;;;;;;;;;;;;;;;26.57;40.31;101980.19;5041492;28;19912;-72
2023/06/15 09:39:52;;;;;;;;;;;;;;;26.57;40.23;101972.84;5062545;28;19917;-71
2023/06/15 09:42:17;;;;;;;;;;;;;;;26.58;40.34;101973.69;5066909;28;19917;-74
2023/06/15 09:44:42;;;;;;;;;;;;;;;26.58;40.42;101976.41;5053679;28;19960;-72
2023/06/15 09:47:13;;;;;;;;;;;;;;;26.59;40.26;101969.91;5057258;28;19913;-72
2023/06/15 09:49:42;;;;;;;;;;;;;;;26.59;40.52;101975.38;5058843;28;19920;-72
2023/06/15 09:52:07;;;;;;;;;;;;;;;26.59;40.28;101965.31;5061927;28;19913;-72
2023/06/15 09:54:33;;;;;;;;;;;;;;;26.60;40.30;101971.63;5064316;28;19924;-73
2023/06/15 09:56:58;;;;;;;;;;;;;;;26.60;40.54;101966.16;5066365;28;19948;-72
2023/06/15 09:59:23;;;;;;;;;;;;;;;26.60;40.38;101967.00;5065091;28;19995;-72
2023/06/15 10:01:49;;;;;;;;;;;;;;;26.61;40.58;101976.88;5070966;28;20393;-72
2023/06/15 10:04:18;;;;;;;;;;;;;;;26.61;40.65;101973.31;5065099;28;19920;-72
2023/06/15 10:06:44;;;;;;;;;;;;;;;26.61;40.35;101973.31;5049854;28;19913;-73
2023/06/15 10:09:09;;;;;;;;;;;;;;;26.62;40.55;101974.97;5072926;28;20286;-73
2023/06/15 10:11:40;;;;;;;;;;;;;;;26.62;40.39;101969.53;5056835;28;19931;-72
2023/06/15 10:14:16;;;;;;;;;;;;;;;26.63;40.53;101960.28;5074361;28;19916;-72
2023/06/15 10:16:41;;;;;;;;;;;;;;;26.63;40.44;101965.75;5062141;28;19917;-73
2023/06/15 10:19:10;;;;;;;;;;;;;;;26.63;40.69;101961.16;5046904;28;19928;-72
2023/06/15 10:21:36;;;;;;;;;;;;;;;26.64;40.52;101956.56;5068956;28;19943;-72
2023/06/15 10:24:02;;;;;;;;;;;;;;;26.65;40.63;101956.34;5047396;28;19919;-72
2023/06/15 10:26:28;;;;;;;;;;;;;;;26.65;40.49;101964.53;5046185;28;19919;-72
2023/06/15 10:28:55;;;;;;;;;;;;;;;26.66;40.69;101966.22;5053223;28;19912;-72
2023/06/15 10:31:39;;;;;;;;;;;;;;;26.66;40.74;101966.22;5063399;28;19916;-72
2023/06/15 10:34:05;;;;;;;;;;;;;;;26.68;40.85;101963.31;5062238;28;19919;-72
2023/06/15 10:36:31;;;;;;;;;;;;;;;26.67;40.75;101962.44;5073121;28;19940;-72
2023/06/15 10:39:10;;;;;;;;;;;;;;;26.69;40.86;101970.44;5037853;28;19924;-72
2023/06/15 10:41:36;;;;;;;;;;;;;;;26.70;40.76;101968.56;5059626;28;19944;-72
2023/06/15 10:44:02;;;;;;;;;;;;;;;26.71;40.69;101964.78;5044104;28;19913;-73
2023/06/15 10:46:28;;;;;;;;;;;;;;;26.72;40.96;101961.88;5066577;28;19920;-73
2023/06/15 10:48:54;;;;;;;;;;;;;;;26.73;40.78;101958.09;5055471;28;19917;-72
2023/06/15 10:51:21;;;;;;;;;;;;;;;26.74;40.73;101967.97;5069277;28;19912;-72
2023/06/15 10:53:46;;;;;;;;;;;;;;;26.75;40.88;101966.94;5065456;28;19923;-72
2023/06/15 10:56:15;;;;;;;;;;;;;;;26.75;40.75;101968.81;5066495;28;19916;-73
2023/06/15 10:58:57;;;;;;;;;;;;;;;26.77;40.90;101967.59;5062157;28;19955;-73
2023/06/15 11:01:26;;;;;;;;;;;;;;;26.79;40.99;101959.19;5064052;28;19921;-72
2023/06/15 11:03:52;;;;;;;;;;;;;;;26.80;40.83;101974.53;5070865;28;19917;-72
2023/06/15 11:06:22;;;;;;;;;;;;;;;26.81;40.85;101960.72;5055689;28;19940;-73
2023/06/15 11:08:47;;;;;;;;;;;;;;;26.83;40.80;101965.94;5077143;28;19912;-72
2023/06/15 11:11:13;;;;;;;;;;;;;;;26.84;40.87;101959.44;5062453;28;19913;-72
2023/06/15 11:13:54;;;;;;;;;;;;;;;26.85;40.83;101967.47;5048522;28;20383;-73
2023/06/15 11:16:22;;;;;;;;;;;;;;;26.87;40.78;101968.09;5070167;28;19925;-73
2023/06/15 11:18:54;;;;;;;;;;;;;;;26.90;40.87;101964.13;5044605;28;19913;-71
2023/06/15 11:21:29;;;;;;;;;;;;;;;26.91;40.78;101954.91;5065760;28;19921;-72
2023/06/15 11:23:57;;;;;;;;;;;;;;;26.92;41.10;101956.59;5048132;28;20328;-72
2023/06/15 11:26:22;;;;;;;;;;;;;;;26.94;40.98;101964.59;5044707;28;19952;-72
2023/06/15 11:28:48;;;;;;;;;;;;;;;26.96;40.92;101959.75;5038134;28;20364;-73
2023/06/15 11:31:14;;;;;;;;;;;;;;;26.98;41.14;101957.69;5066904;28;20007;-73
2023/06/15 11:33:41;;;;;;;;;;;;;;;26.99;40.93;101954.75;5054375;28;20404;-72
2023/06/15 11:36:07;;;;;;;;;;;;;;;27.00;40.80;101950.97;5075273;28;20396;-72
2023/06/15 11:38:32;;;;;;;;;;;;;;;27.02;40.97;101942.63;5060502;28;19917;-72
2023/06/15 11:40:58;;;;;;;;;;;;;;;27.04;40.94;101949.56;5047810;28;20031;-73
2023/06/15 11:43:23;;;;;;;;;;;;;;;27.06;40.72;101947.47;5069081;28;19912;-73
2023/06/15 11:45:48;;;;;;;;;;;;;;;27.08;41.11;101944.53;5060876;28;19939;-73
2023/06/15 11:48:14;;;;;;;;;;;;;;;27.10;40.98;101945.19;5049636;28;19913;-72
2023/06/15 11:50:45;;;;;;;;;;;;;;;27.12;40.95;101937.69;5049810;28;19912;-72
2023/06/15 11:53:15;;;;;;;;;;;;;;;27.14;41.04;101933.72;5063991;28;19913;-73
2023/06/15 11:55:46;;;;;;;;;;;;;;;27.16;40.68;101931.63;5063428;28;19944;-72
2023/06/15 11:58:11;;;;;;;;;;;;;;;27.19;40.83;101927.66;5070911;28;19920;-72
2023/06/15 12:00:37;;;;;;;;;;;;;;;27.23;40.61;101936.25;5058960;28;19917;-72
2023/06/15 12:03:09;;;;;;;;;;;;;;;27.24;40.70;101927.06;5076268;28;19917;-72
2023/06/15 12:05:34;;;;;;;;;;;;;;;27.27;40.60;101935.69;5061046;28;19920;-72
2023/06/15 12:08:00;;;;;;;;;;;;;;;27.30;40.83;101928.97;5059893;28;19913;-73
2023/06/15 12:10:26;;;;;;;;;;;;;;;27.32;40.40;101927.75;5068864;28;19921;-73
2023/06/15 12:12:51;;;;;;;;;;;;;;;27.34;40.52;101919.34;5052295;28;19919;-73
2023/06/15 12:15:17;;;;;;;;;;;;;;;27.37;40.61;101929.88;5065876;28;19944;-73
2023/06/15 12:17:42;;;;;;;;;;;;;;;27.39;40.81;101922.31;5064279;28;19918;-73
2023/06/15 12:20:11;;;;;;;;;;;;;;;27.41;40.74;101931.16;5051348;28;19913;-73
2023/06/15 12:22:36;;;;;;;;;;;;;;;27.43;40.67;101926.31;5063780;28;19922;-72
2023/06/15 12:25:04;;;;;;;;;;;;;;;27.45;40.69;101924.25;5053385;28;20296;-72
2023/06/15 12:27:31;;;;;;;;;;;;;;;27.48;40.54;101933.91;5056745;28;19920;-73
2023/06/15 12:30:06;;;;;;;;;;;;;;;27.49;40.59;101925.53;5067524;28;19916;-73